Time;durP1;ratioP1;P1;durP2;ratioP2;P2;SDS_P1;SDS_P2;PMS_P1;PMS_P2;Temp;Humidity;BMP_temperature;BMP_pressure;BME280_temperature;BME280_humidity;BME280_pressure;Samples;Min_cycle;Max_cycle;Signal;HPM_P1;HPM_P2
2023/10/26 00:01:49;;;;;;;7.63;3.10;;;-0.30;99.90;;;;;;5033357;28;20195;-86
2023/10/26 00:04:17;;;;;;;5.88;3.15;;;-0.20;99.90;;;;;;5045116;28;20273;-85
2023/10/26 00:06:45;;;;;;;7.32;3.22;;;-0.20;99.90;;;;;;5045355;28;20699;-87
2023/10/26 00:09:12;;;;;;;7.57;3.53;;;-0.30;99.90;;;;;;5028952;28;20189;-87
2023/10/26 00:11:40;;;;;;;6.50;3.33;;;-0.20;99.90;;;;;;5027809;28;20202;-86
2023/10/26 00:14:08;;;;;;;7.03;3.97;;;-0.20;99.90;;;;;;5043212;28;20201;-86
2023/10/26 00:16:35;;;;;;;6.00;3.38;;;-0.30;99.90;;;;;;5027643;28;20615;-86
2023/10/26 00:19:03;;;;;;;8.88;3.78;;;-0.30;99.90;;;;;;5029408;28;20221;-85
2023/10/26 00:21:31;;;;;;;8.52;4.13;;;-0.30;99.90;;;;;;5022105;28;20293;-85
2023/10/26 00:23:59;;;;;;;8.45;3.50;;;-0.40;99.90;;;;;;5061624;28;20193;-85
2023/10/26 00:26:27;;;;;;;5.38;3.00;;;-0.30;99.90;;;;;;5035171;28;20229;-87
2023/10/26 00:28:55;;;;;;;6.00;3.28;;;-0.20;99.90;;;;;;5030184;28;20216;-86
2023/10/26 00:31:23;;;;;;;6.13;3.50;;;-0.20;99.90;;;;;;5038677;28;20182;-85
2023/10/26 00:33:51;;;;;;;8.25;3.67;;;-0.20;99.90;;;;;;5027362;28;20230;-86
2023/10/26 00:36:20;;;;;;;7.90;3.05;;;-0.30;99.90;;;;;;5026192;28;20258;-86
2023/10/26 00:38:48;;;;;;;5.80;3.38;;;-0.40;99.90;;;;;;5028240;28;20256;-86
2023/10/26 00:41:15;;;;;;;6.68;3.63;;;-0.40;99.90;;;;;;5029246;28;20555;-84
2023/10/26 00:43:43;;;;;;;7.57;3.72;;;-0.30;99.90;;;;;;5029286;28;20190;-86
2023/10/26 00:46:11;;;;;;;8.90;3.58;;;-0.40;99.90;;;;;;5041136;28;20209;-86
2023/10/26 00:48:39;;;;;;;8.93;3.45;;;-0.40;99.90;;;;;;5042921;28;21019;-86
2023/10/26 00:51:07;;;;;;;9.15;3.85;;;-0.40;99.90;;;;;;5028226;28;20765;-84
2023/10/26 00:53:35;;;;;;;6.78;3.17;;;-0.20;99.90;;;;;;5044240;28;20669;-86
2023/10/26 00:56:04;;;;;;;6.10;3.63;;;-0.10;99.90;;;;;;5028086;28;20646;-87
2023/10/26 00:58:33;;;;;;;8.95;3.92;;;-0.20;99.90;;;;;;5028081;28;20209;-86
2023/10/26 01:01:01;;;;;;;6.22;3.13;;;-0.20;99.90;;;;;;5027848;28;20198;-86
2023/10/26 01:03:30;;;;;;;6.75;4.22;;;-0.30;99.90;;;;;;5029876;28;20550;-85
2023/10/26 01:05:58;;;;;;;8.07;3.60;;;-0.40;99.90;;;;;;5029100;28;20186;-86
2023/10/26 01:08:26;;;;;;;6.28;3.60;;;-0.30;99.90;;;;;;5029797;28;20189;-85
2023/10/26 01:10:54;;;;;;;5.18;3.67;;;-0.30;99.90;;;;;;5029637;28;20192;-87
2023/10/26 01:13:23;;;;;;;6.47;3.88;;;-0.30;99.90;;;;;;5029099;28;20190;-85
2023/10/26 01:15:51;;;;;;;6.60;3.47;;;-0.20;99.90;;;;;;5025463;28;20205;-85
2023/10/26 01:18:18;;;;;;;5.47;3.17;;;-0.30;99.90;;;;;;5029027;28;20240;-85
2023/10/26 01:20:47;;;;;;;6.10;3.30;;;-0.40;99.90;;;;;;5029173;28;20214;-85
2023/10/26 01:23:14;;;;;;;6.25;3.65;;;-0.50;99.90;;;;;;5029587;28;20197;-87
2023/10/26 01:25:46;;;;;;;9.10;3.95;;;-0.40;99.90;;;;;;5029269;28;20255;-85
2023/10/26 01:28:13;;;;;;;10.95;3.80;;;-0.20;99.90;;;;;;5029550;28;20198;-85
2023/10/26 01:30:41;;;;;;;10.70;4.45;;;-0.30;99.90;;;;;;5039387;28;20680;-85
2023/10/26 01:33:09;;;;;;;8.23;3.47;;;-0.30;99.90;;;;;;5022107;28;20198;-84
2023/10/26 01:35:40;;;;;;;9.73;4.43;;;-0.40;99.90;;;;;;5016982;28;20202;-85
2023/10/26 01:38:09;;;;;;;11.25;4.82;;;-0.40;99.90;;;;;;5032628;28;20217;-84
2023/10/26 01:40:37;;;;;;;9.15;4.25;;;-0.50;99.90;;;;;;5032982;28;20512;-85
2023/10/26 01:43:05;;;;;;;7.80;4.28;;;-0.50;99.90;;;;;;5032657;28;20186;-85
2023/10/26 01:45:34;;;;;;;7.05;4.18;;;-0.40;99.90;;;;;;5015373;28;20721;-85
2023/10/26 01:48:02;;;;;;;8.68;3.97;;;-0.50;99.90;;;;;;5059985;28;20317;-85
2023/10/26 01:50:32;;;;;;;7.80;4.25;;;-0.50;99.90;;;;;;5032856;28;20182;-87
2023/10/26 01:52:59;;;;;;;8.07;4.05;;;-0.40;99.90;;;;;;5030931;28;20200;-85
2023/10/26 01:55:27;;;;;;;7.65;4.32;;;-0.40;99.90;;;;;;5032355;28;20189;-86
2023/10/26 01:57:55;;;;;;;10.13;4.30;;;-0.50;99.90;;;;;;5032171;28;20861;-84
2023/10/26 02:00:23;;;;;;;5.88;4.05;;;-0.50;99.90;;;;;;5030736;28;20201;-86
2023/10/26 02:02:51;;;;;;;7.95;3.97;;;-0.30;99.90;;;;;;5031661;28;20213;-86
2023/10/26 02:05:19;;;;;;;6.25;3.92;;;-0.40;99.90;;;;;;5030528;28;20186;-85
2023/10/26 02:07:46;;;;;;;7.03;4.03;;;-0.50;99.90;;;;;;5020687;28;20225;-84
2023/10/26 02:10:15;;;;;;;8.68;4.55;;;-0.50;99.90;;;;;;5031719;28;20539;-85
2023/10/26 02:12:43;;;;;;;7.28;4.10;;;-0.60;99.90;;;;;;5025309;28;20197;-85
2023/10/26 02:15:14;;;;;;;7.75;3.70;;;-0.50;99.90;;;;;;5030905;28;20252;-85
2023/10/26 02:17:42;;;;;;;10.15;3.83;;;-0.50;99.90;;;;;;5024798;28;20194;-85
2023/10/26 02:20:10;;;;;;;7.60;4.32;;;-0.40;99.90;;;;;;5063908;28;20194;-87
2023/10/26 02:22:38;;;;;;;8.00;4.07;;;-0.40;99.90;;;;;;5046750;28;20189;-84
2023/10/26 02:25:06;;;;;;;7.38;3.72;;;-0.30;99.90;;;;;;5029520;28;20198;-85
2023/10/26 02:27:35;;;;;;;6.75;4.28;;;-0.40;99.90;;;;;;5031495;28;20571;-84
2023/10/26 02:30:03;;;;;;;10.48;5.38;;;-0.40;99.90;;;;;;5031219;28;20198;-85
2023/10/26 02:32:31;;;;;;;9.63;4.82;;;-0.40;99.90;;;;;;5043505;28;20197;-86
2023/10/26 02:34:59;;;;;;;9.32;3.60;;;-0.50;99.90;;;;;;5063686;28;20305;-84
2023/10/26 02:37:28;;;;;;;7.25;3.72;;;-0.40;99.90;;;;;;5063205;28;20278;-85
2023/10/26 02:39:57;;;;;;;6.85;3.67;;;-0.40;99.90;;;;;;5018885;28;20199;-85
2023/10/26 02:42:26;;;;;;;10.13;4.25;;;-0.50;99.90;;;;;;5028210;28;20251;-84
2023/10/26 02:44:57;;;;;;;6.63;4.13;;;-0.50;99.90;;;;;;5031422;28;20212;-85
2023/10/26 02:47:24;;;;;;;9.35;4.25;;;-0.60;99.90;;;;;;5031291;28;20201;-85
2023/10/26 02:49:52;;;;;;;7.47;3.90;;;-0.50;99.90;;;;;;5032036;28;20842;-85
2023/10/26 02:52:20;;;;;;;115.97;107.63;;;-0.40;99.90;;;;;;5029262;28;20680;-85
2023/10/26 02:54:47;;;;;;;6.60;4.18;;;-0.40;99.90;;;;;;5027220;28;20241;-85
2023/10/26 02:57:16;;;;;;;7.82;3.60;;;-0.50;99.90;;;;;;5046475;28;20220;-84
2023/10/26 02:59:43;;;;;;;7.28;3.97;;;-0.50;99.90;;;;;;5040419;28;20186;-84
2023/10/26 03:02:11;;;;;;;7.28;3.95;;;-0.50;99.90;;;;;;5026631;28;20205;-83
2023/10/26 03:04:39;;;;;;;8.75;4.03;;;-0.60;99.90;;;;;;5022521;28;20193;-86
2023/10/26 03:07:09;;;;;;;11.05;3.65;;;-0.50;99.90;;;;;;5019743;28;20259;-86
2023/10/26 03:09:37;;;;;;;6.85;3.60;;;-0.50;99.90;;;;;;5037414;28;20186;-85
2023/10/26 03:12:05;;;;;;;6.65;3.25;;;-0.70;99.90;;;;;;5029768;28;20188;-85
2023/10/26 03:14:33;;;;;;;8.10;3.50;;;-0.60;99.90;;;;;;5029403;28;20197;-85
2023/10/26 03:17:00;;;;;;;5.90;3.78;;;-0.60;99.90;;;;;;5036404;28;20189;-84
2023/10/26 03:19:28;;;;;;;7.85;3.60;;;-0.60;99.90;;;;;;5020527;28;20272;-85
2023/10/26 03:21:56;;;;;;;5.22;3.38;;;-0.80;99.90;;;;;;5038754;28;20245;-86
2023/10/26 03:24:24;;;;;;;8.35;3.97;;;-0.60;99.90;;;;;;5026156;28;20282;-85
2023/10/26 03:26:52;;;;;;;9.70;3.60;;;-0.60;99.90;;;;;;5027347;28;20209;-84
2023/10/26 03:29:21;;;;;;;5.72;2.95;;;-0.70;99.90;;;;;;5062887;28;20182;-86
2023/10/26 03:31:48;;;;;;;6.13;3.22;;;-0.70;99.90;;;;;;5029484;28;20213;-85
2023/10/26 03:34:16;;;;;;;5.47;3.03;;;-0.70;99.90;;;;;;5030690;28;20963;-86
2023/10/26 03:36:44;;;;;;;4.85;2.70;;;-0.80;99.90;;;;;;5023367;28;20190;-86
2023/10/26 03:39:14;;;;;;;7.25;3.17;;;-0.80;99.90;;;;;;5061968;28;20200;-87
2023/10/26 03:41:42;;;;;;;6.43;3.42;;;-0.70;99.90;;;;;;5062014;28;20311;-87
2023/10/26 03:44:10;;;;;;;6.95;2.83;;;-0.70;99.90;;;;;;5042074;28;20210;-85
2023/10/26 03:46:37;;;;;;;7.18;3.58;;;-0.70;99.90;;;;;;5025784;28;20190;-84
2023/10/26 03:49:06;;;;;;;6.25;2.70;;;-0.80;99.90;;;;;;5060919;28;20942;-86
2023/10/26 03:51:34;;;;;;;5.65;3.03;;;-0.70;99.90;;;;;;5022789;28;20193;-84
2023/10/26 03:54:02;;;;;;;7.60;3.10;;;-0.70;99.90;;;;;;5034906;28;20290;-85
2023/10/26 03:56:29;;;;;;;6.75;3.00;;;-0.70;99.90;;;;;;5030657;28;20201;-85
2023/10/26 03:58:57;;;;;;;6.28;3.42;;;-0.80;99.90;;;;;;5061863;28;20198;-85
2023/10/26 04:01:25;;;;;;;8.75;2.70;;;-0.80;99.90;;;;;;5042011;28;20194;-87
2023/10/26 04:03:52;;;;;;;6.32;2.53;;;-0.70;99.90;;;;;;5061887;28;20186;-87
2023/10/26 04:06:20;;;;;;;5.57;2.85;;;-0.70;99.90;;;;;;5034839;28;20224;-86
2023/10/26 04:08:48;;;;;;;6.72;2.80;;;-0.60;99.90;;;;;;5029902;28;20212;-84
2023/10/26 04:11:19;;;;;;;5.95;2.63;;;-0.70;99.90;;;;;;5013123;28;20201;-85
2023/10/26 04:13:47;;;;;;;4.80;2.58;;;-0.60;99.90;;;;;;5061801;28;20204;-85
2023/10/26 04:16:15;;;;;;;5.82;2.75;;;-0.70;99.90;;;;;;5038664;28;20189;-86
2023/10/26 04:18:43;;;;;;;8.25;3.42;;;-0.80;99.90;;;;;;5044710;28;20657;-83
2023/10/26 04:21:10;;;;;;;6.40;2.70;;;-0.80;99.90;;;;;;5028970;28;20190;-86
2023/10/26 04:23:38;;;;;;;5.45;2.50;;;-0.80;99.90;;;;;;5021279;28;20193;-87
2023/10/26 04:26:09;;;;;;;4.00;2.28;;;-0.80;99.90;;;;;;5023597;28;20199;-84
2023/10/26 04:28:37;;;;;;;4.05;2.42;;;-0.70;99.90;;;;;;5018396;28;20213;-87
2023/10/26 04:31:21;;;;;;;5.35;2.10;;;-0.80;99.90;;;;;;5037424;28;20612;-85
2023/10/26 04:33:49;;;;;;;4.32;2.45;;;-0.80;99.90;;;;;;5020290;28;20252;-85
2023/10/26 04:36:22;;;;;;;4.53;2.58;;;-0.90;99.90;;;;;;5025724;28;20202;-85
2023/10/26 04:38:50;;;;;;;3.65;2.00;;;-0.80;99.90;;;;;;5044576;28;20288;-86
2023/10/26 04:41:18;;;;;;;6.07;2.63;;;-0.70;99.90;;;;;;5017453;28;20190;-85
2023/10/26 04:43:46;;;;;;;10.07;2.90;;;-0.70;99.90;;;;;;5021575;28;20744;-86
2023/10/26 04:46:14;;;;;;;7.07;2.70;;;-0.60;99.90;;;;;;5011383;28;20194;-87
2023/10/26 04:48:42;;;;;;;4.57;2.35;;;-0.70;99.90;;;;;;5019195;28;20300;-85
2023/10/26 04:51:09;;;;;;;7.82;2.72;;;-0.70;99.90;;;;;;5008961;28;20222;-85
2023/10/26 04:53:37;;;;;;;6.63;2.47;;;-0.60;99.90;;;;;;5041611;28;20206;-87
2023/10/26 04:56:06;;;;;;;5.82;2.47;;;-0.80;99.90;;;;;;5026202;28;20194;-86
2023/10/26 04:58:33;;;;;;;5.32;2.35;;;-0.70;99.90;;;;;;5025014;28;20197;-86
2023/10/26 05:01:01;;;;;;;8.68;2.72;;;-0.60;99.90;;;;;;5053304;28;20224;-86
2023/10/26 05:03:29;;;;;;;8.95;3.25;;;-0.70;99.90;;;;;;5015473;28;20183;-85
2023/10/26 05:05:57;;;;;;;5.95;2.92;;;-0.70;99.90;;;;;;5021805;28;20745;-87
2023/10/26 05:08:25;;;;;;;5.22;2.53;;;-0.80;99.90;;;;;;5029454;28;20260;-84
2023/10/26 05:10:52;;;;;;;7.53;2.97;;;-0.80;99.90;;;;;;5021411;28;20647;-87
2023/10/26 05:13:21;;;;;;;8.43;2.60;;;-0.80;99.90;;;;;;5042267;28;20683;-86
2023/10/26 05:15:49;;;;;;;6.72;3.00;;;-0.70;99.90;;;;;;5064824;28;20189;-87
2023/10/26 05:18:17;;;;;;;7.55;2.63;;;-0.70;99.90;;;;;;5039228;28;20281;-84
2023/10/26 05:20:49;;;;;;;8.45;2.63;;;-0.80;99.90;;;;;;5041159;28;20730;-87
2023/10/26 05:23:17;;;;;;;5.45;2.58;;;-0.80;99.90;;;;;;5017062;28;20487;-87
2023/10/26 05:25:45;;;;;;;5.18;1.90;;;-0.80;99.90;;;;;;5002995;28;20569;-85
2023/10/26 05:28:12;;;;;;;5.10;2.50;;;-0.70;99.90;;;;;;5028779;28;20594;-86
2023/10/26 05:30:40;;;;;;;10.25;2.72;;;-0.80;99.90;;;;;;5031503;28;20182;-85
2023/10/26 05:33:08;;;;;;;4.13;2.20;;;-0.90;99.90;;;;;;5032995;28;20517;-87
2023/10/26 05:35:36;;;;;;;6.90;2.35;;;-0.90;99.90;;;;;;5032807;28;20268;-86
2023/10/26 05:38:04;;;;;;;5.60;2.63;;;-0.90;99.90;;;;;;5032671;28;20190;-86
2023/10/26 05:40:31;;;;;;;4.63;2.03;;;-0.80;99.90;;;;;;5064210;28;20186;-87
2023/10/26 05:42:59;;;;;;;7.43;2.47;;;-0.80;99.90;;;;;;5033056;28;20221;-84
2023/10/26 05:45:27;;;;;;;5.18;2.40;;;-0.90;99.90;;;;;;5042473;28;20946;-85
2023/10/26 05:47:55;;;;;;;4.63;2.60;;;-0.90;99.90;;;;;;5032902;28;20230;-85
2023/10/26 05:50:23;;;;;;;3.78;2.20;;;-0.80;99.90;;;;;;5023007;28;20244;-87
2023/10/26 05:52:51;;;;;;;6.00;2.60;;;-0.80;99.90;;;;;;5064835;28;20659;-88
2023/10/26 05:55:19;;;;;;;5.22;2.70;;;-0.90;99.90;;;;;;5032528;28;20244;-87
2023/10/26 05:57:46;;;;;;;4.15;2.08;;;-0.80;99.90;;;;;;5021770;28;20198;-86
2023/10/26 06:00:14;;;;;;;6.40;2.50;;;-0.70;99.90;;;;;;5032563;28;20190;-86
2023/10/26 06:02:42;;;;;;;6.80;2.63;;;-0.90;99.90;;;;;;5042062;28;20658;-85
2023/10/26 06:05:09;;;;;;;5.68;3.00;;;-0.90;99.90;;;;;;5021642;28;20201;-85
2023/10/26 06:07:37;;;;;;;7.30;2.78;;;-0.90;99.90;;;;;;5032211;28;20233;-84
2023/10/26 06:10:05;;;;;;;6.68;2.85;;;-0.80;99.90;;;;;;5025575;28;20216;-87
2023/10/26 06:12:33;;;;;;;6.22;3.20;;;-0.80;99.90;;;;;;5032398;28;20193;-86
2023/10/26 06:15:01;;;;;;;6.95;2.72;;;-0.70;99.90;;;;;;5030958;28;20592;-86
2023/10/26 06:17:29;;;;;;;5.88;2.97;;;-0.80;99.90;;;;;;5032076;28;20200;-86
2023/10/26 06:19:57;;;;;;;4.50;2.30;;;-0.80;99.90;;;;;;5032050;28;20198;-88
2023/10/26 06:22:24;;;;;;;4.75;2.70;;;-0.80;99.90;;;;;;5032118;28;20197;-86
2023/10/26 06:24:52;;;;;;;8.02;2.72;;;-0.80;99.90;;;;;;5032150;28;20563;-85
2023/10/26 06:27:20;;;;;;;5.50;2.53;;;-0.80;99.90;;;;;;5031730;28;20217;-87
2023/10/26 06:29:51;;;;;;;6.43;3.20;;;-0.80;99.90;;;;;;5064262;28;20251;-86
2023/10/26 06:32:19;;;;;;;5.45;2.53;;;-0.80;99.90;;;;;;5060273;28;20190;-87
2023/10/26 06:34:47;;;;;;;6.03;2.97;;;-0.90;99.90;;;;;;5044124;28;20226;-87
2023/10/26 06:37:15;;;;;;;6.10;3.17;;;-0.90;99.90;;;;;;5043800;28;20199;-86
2023/10/26 06:39:42;;;;;;;8.32;3.15;;;-1.00;99.90;;;;;;5020390;28;21082;-86
2023/10/26 06:42:10;;;;;;;4.60;2.47;;;-0.90;99.90;;;;;;5029746;28;20198;-87
2023/10/26 06:44:39;;;;;;;6.78;3.15;;;-1.10;99.90;;;;;;5031719;28;20209;-85
2023/10/26 06:47:07;;;;;;;6.72;3.38;;;-1.10;99.90;;;;;;5029807;28;20186;-86
2023/10/26 06:49:34;;;;;;;4.90;3.20;;;-1.00;99.90;;;;;;5031186;28;20197;-86
2023/10/26 06:52:02;;;;;;;8.05;3.00;;;-0.90;99.90;;;;;;5031354;28;20268;-85
2023/10/26 06:54:30;;;;;;;7.68;3.20;;;-0.80;99.90;;;;;;5029927;28;20680;-84
2023/10/26 06:56:59;;;;;;;8.88;2.92;;;-0.90;99.90;;;;;;5031887;28;20183;-85
2023/10/26 06:59:26;;;;;;;6.57;3.35;;;-0.90;99.90;;;;;;5063676;28;20681;-86
2023/10/26 07:01:54;;;;;;;8.05;3.50;;;-0.90;99.90;;;;;;5024313;28;20727;-87
2023/10/26 07:04:38;;;;;;;6.57;3.22;;;-0.90;99.90;;;;;;5030573;28;20185;-86
2023/10/26 07:07:06;;;;;;;6.72;3.10;;;-0.90;99.90;;;;;;5031125;28;20986;-85
2023/10/26 07:09:35;;;;;;;5.07;2.92;;;-0.90;99.90;;;;;;5028002;28;20217;-86
2023/10/26 07:12:03;;;;;;;7.80;3.53;;;-0.90;99.90;;;;;;5043024;28;20225;-86
2023/10/26 07:14:31;;;;;;;6.40;3.30;;;-1.10;99.90;;;;;;5062990;28;20196;-85
2023/10/26 07:16:59;;;;;;;6.57;3.08;;;-1.00;99.90;;;;;;5030084;28;20182;-86
2023/10/26 07:19:26;;;;;;;9.75;3.25;;;-0.90;99.90;;;;;;5032844;28;20630;-85
2023/10/26 07:21:54;;;;;;;6.55;3.60;;;-0.90;99.90;;;;;;5031146;28;20194;-87
2023/10/26 07:24:22;;;;;;;5.68;2.83;;;-1.10;99.90;;;;;;5031192;28;20197;-85
2023/10/26 07:26:50;;;;;;;7.22;3.40;;;-1.10;99.90;;;;;;5030783;28;20667;-85
2023/10/26 07:29:17;;;;;;;7.85;3.78;;;-1.10;99.90;;;;;;5030192;28;20264;-85
2023/10/26 07:31:46;;;;;;;6.32;3.00;;;-1.00;99.90;;;;;;5030634;28;20229;-85
2023/10/26 07:34:17;;;;;;;9.23;3.55;;;-1.00;99.90;;;;;;5030766;28;20218;-86
2023/10/26 07:36:45;;;;;;;10.73;3.53;;;-0.90;99.90;;;;;;5062231;28;20189;-84
2023/10/26 07:39:15;;;;;;;8.43;3.28;;;-0.90;99.90;;;;;;5030609;28;20194;-85
2023/10/26 07:42:04;;;;;;;16.05;4.18;;;-0.90;99.90;;;;;;5031344;28;20186;-82
2023/10/26 07:44:37;;;;;;;13.07;3.80;;;-1.00;99.90;;;;;;5031059;28;20193;-88
2023/10/26 07:47:08;;;;;;;9.48;3.55;;;-0.90;99.90;;;;;;5046904;28;20202;-89
2023/10/26 07:49:36;;;;;;;8.73;3.70;;;-1.10;99.90;;;;;;5039048;28;20222;-88
2023/10/26 07:52:05;;;;;;;5.22;3.33;;;-1.00;99.90;;;;;;5021763;28;20179;-90
2023/10/26 07:54:32;;;;;;;6.97;3.40;;;-0.90;99.90;;;;;;5030934;28;20244;-90
2023/10/26 07:57:01;;;;;;;10.75;3.80;;;-1.00;99.90;;;;;;5041088;28;20182;-91
2023/10/26 07:59:30;;;;;;;6.72;3.22;;;-0.90;99.90;;;;;;5028012;28;20265;-90
2023/10/26 08:01:57;;;;;;;6.90;3.83;;;-1.00;99.90;;;;;;5024803;28;20699;-88
2023/10/26 08:04:27;;;;;;;10.45;3.95;;;-1.00;99.90;;;;;;5059748;28;20202;-89
2023/10/26 08:06:55;;;;;;;8.25;4.40;;;-1.00;99.90;;;;;;5022719;28;20222;-89
2023/10/26 08:09:23;;;;;;;11.00;4.30;;;-0.90;99.90;;;;;;5059273;28;20241;-88
2023/10/26 08:11:51;;;;;;;9.20;4.28;;;-0.90;99.90;;;;;;5034837;28;20644;-90
2023/10/26 08:14:19;;;;;;;8.15;4.28;;;-0.80;99.90;;;;;;5030536;28;20225;-90
2023/10/26 08:17:06;;;;;;;9.18;3.85;;;-0.90;99.90;;;;;;5058661;28;20265;-89
2023/10/26 08:19:34;;;;;;;10.38;4.40;;;-0.80;99.90;;;;;;5046947;28;20271;-89
2023/10/26 08:22:02;;;;;;;8.68;4.35;;;-0.90;99.90;;;;;;5035910;28;20220;-90
2023/10/26 08:24:31;;;;;;;7.25;4.10;;;-0.90;99.90;;;;;;5062839;28;20185;-90
2023/10/26 08:26:59;;;;;;;8.48;4.60;;;-0.90;99.90;;;;;;5032218;28;20209;-90
2023/10/26 08:29:28;;;;;;;7.40;3.70;;;-0.90;99.90;;;;;;5009832;28;20872;-89
2023/10/26 08:31:57;;;;;;;11.07;4.18;;;-0.90;99.90;;;;;;5059241;28;20286;-90
2023/10/26 08:34:27;;;;;;;10.48;3.90;;;-0.80;99.90;;;;;;5029396;28;20226;-90
2023/10/26 08:36:55;;;;;;;9.73;4.60;;;-0.70;99.90;;;;;;5028559;28;20198;-90
2023/10/26 08:39:28;;;;;;;8.35;4.60;;;-0.80;99.90;;;;;;5063054;28;20204;-90
2023/10/26 08:41:59;;;;;;;7.97;4.50;;;-0.80;99.90;;;;;;5046775;28;20248;-88
2023/10/26 08:44:28;;;;;;;8.38;4.50;;;-0.80;99.90;;;;;;5028644;28;20680;-88
2023/10/26 08:47:03;;;;;;;7.78;4.28;;;-0.90;99.90;;;;;;5062940;28;20194;-90
2023/10/26 08:49:32;;;;;;;9.60;4.30;;;-0.90;99.90;;;;;;5043434;28;20958;-89
2023/10/26 08:52:00;;;;;;;12.30;5.35;;;-0.80;99.90;;;;;;5004276;28;20555;-89
2023/10/26 08:54:28;;;;;;;8.88;4.35;;;-0.90;99.90;;;;;;5040974;28;20202;-89
2023/10/26 08:57:05;;;;;;;13.10;4.70;;;-0.90;99.90;;;;;;5055848;28;20191;-86
2023/10/26 08:59:34;;;;;;;9.93;4.35;;;-0.90;99.90;;;;;;5038023;28;20218;-86
2023/10/26 09:02:02;;;;;;;12.32;5.20;;;-0.80;99.90;;;;;;5017049;28;20252;-87
2023/10/26 09:04:30;;;;;;;9.13;4.72;;;-0.90;99.90;;;;;;5061712;28;20292;-85
2023/10/26 09:06:58;;;;;;;10.32;5.20;;;-1.00;99.90;;;;;;5060876;28;20261;-87
2023/10/26 09:09:26;;;;;;;15.43;5.63;;;-0.90;99.90;;;;;;5061022;28;20293;-86
2023/10/26 09:11:54;;;;;;;9.65;5.28;;;-0.80;99.90;;;;;;5038470;28;20186;-86
2023/10/26 09:14:22;;;;;;;11.82;5.07;;;-0.80;99.90;;;;;;5027619;28;20189;-88
2023/10/26 09:16:50;;;;;;;7.30;4.80;;;-0.90;99.90;;;;;;5029591;28;20182;-88
2023/10/26 09:19:19;;;;;;;12.13;5.18;;;-0.80;99.90;;;;;;5019682;28;20204;-88
2023/10/26 09:21:55;;;;;;;10.32;4.97;;;-0.90;99.90;;;;;;5023060;28;20198;-87
2023/10/26 09:24:29;;;;;;;9.38;4.70;;;-0.80;99.90;;;;;;5019748;28;20280;-86
2023/10/26 09:27:00;;;;;;;8.93;5.15;;;-0.80;99.90;;;;;;5027409;28;20198;-86
2023/10/26 09:29:40;;;;;;;11.25;5.05;;;-0.80;99.90;;;;;;5028969;28;20194;-86
2023/10/26 09:32:09;;;;;;;13.52;5.47;;;-0.70;99.90;;;;;;5022645;28;20190;-87
2023/10/26 09:34:44;;;;;;;10.57;5.10;;;-0.80;99.90;;;;;;5029513;28;20230;-88
2023/10/26 09:37:13;;;;;;;9.25;4.80;;;-0.70;99.90;;;;;;5060941;28;20239;-89
2023/10/26 09:39:41;;;;;;;11.85;5.07;;;-0.70;99.90;;;;;;5028194;28;20197;-87
2023/10/26 09:42:09;;;;;;;12.45;5.50;;;-0.70;99.90;;;;;;5029304;28;20778;-87
2023/10/26 09:44:40;;;;;;;8.80;4.93;;;-0.80;99.90;;;;;;5044021;28;20201;-88
2023/10/26 09:47:09;;;;;;;11.48;5.32;;;-0.80;99.90;;;;;;5034092;28;20681;-87
2023/10/26 09:49:40;;;;;;;9.90;5.13;;;-0.80;99.90;;;;;;5061912;28;20198;-88
2023/10/26 09:52:09;;;;;;;9.68;5.18;;;-0.80;99.90;;;;;;5029081;28;20658;-87
2023/10/26 09:54:40;;;;;;;9.30;4.80;;;-0.90;99.90;;;;;;5022769;28;20224;-88
2023/10/26 09:57:13;;;;;;;12.02;5.75;;;-0.80;99.90;;;;;;5041483;28;20197;-87
2023/10/26 09:59:42;;;;;;;9.20;5.20;;;-0.80;99.90;;;;;;5064768;28;20277;-88
2023/10/26 10:02:16;;;;;;;8.93;4.80;;;-0.80;99.90;;;;;;5025755;28;20284;-88
2023/10/26 10:04:45;;;;;;;12.07;5.20;;;-0.80;99.90;;;;;;5029550;28;20198;-89
2023/10/26 10:07:43;;;;;;;9.70;5.28;;;-0.80;99.90;;;;;;5057211;28;20202;-88
2023/10/26 10:10:12;;;;;;;7.63;4.20;;;-0.80;99.90;;;;;;5032505;28;20202;-87
2023/10/26 10:12:42;;;;;;;10.45;5.53;;;-0.80;99.90;;;;;;5031456;28;20186;-89
2023/10/26 10:15:11;;;;;;;11.00;5.25;;;-0.80;99.90;;;;;;5020917;28;20193;-90
2023/10/26 10:17:45;;;;;;;15.93;6.13;;;-0.80;99.90;;;;;;5013078;28;20625;-89
2023/10/26 10:20:19;;;;;;;8.18;5.03;;;-0.80;99.90;;;;;;5032923;28;20293;-89
2023/10/26 10:22:53;;;;;;;8.98;5.10;;;-0.70;99.90;;;;;;5029708;28;20195;-87
2023/10/26 10:25:23;;;;;;;10.00;4.82;;;-0.70;99.90;;;;;;5032786;28;20253;-88
2023/10/26 10:27:50;;;;;;;12.35;5.68;;;-0.70;99.90;;;;;;5055645;28;20189;-88
2023/10/26 10:30:21;;;;;;;10.55;5.45;;;-0.70;99.90;;;;;;5032949;28;20209;-87
2023/10/26 10:32:51;;;;;;;11.00;6.00;;;-0.80;99.90;;;;;;5025664;28;20190;-87
2023/10/26 10:35:25;;;;;;;12.25;5.57;;;-0.70;99.90;;;;;;5031085;28;20237;-89
2023/10/26 10:38:25;;;;;;;9.43;4.72;;;-0.80;99.90;;;;;;5025219;28;20198;-88
2023/10/26 10:40:58;;;;;;;7.97;4.72;;;-0.80;99.90;;;;;;5030130;28;20225;-85
2023/10/26 10:43:40;;;;;;;11.02;5.22;;;-0.80;99.90;;;;;;5000512;28;20567;-85
2023/10/26 10:46:20;;;;;;;7.78;4.43;;;-0.70;99.90;;;;;;5018171;28;20213;-88
2023/10/26 10:49:03;;;;;;;7.88;4.72;;;-0.70;99.90;;;;;;5036182;28;20216;-90
2023/10/26 10:51:36;;;;;;;9.80;5.28;;;-0.70;99.90;;;;;;5051696;28;20195;-88
2023/10/26 10:54:08;;;;;;;9.25;5.10;;;-0.70;99.90;;;;;;5033172;28;20182;-87
2023/10/26 10:56:56;;;;;;;11.00;5.38;;;-0.70;99.90;;;;;;5032174;28;20916;-87
2023/10/26 10:59:30;;;;;;;8.90;4.57;;;-0.70;99.90;;;;;;5020699;28;20194;-88
2023/10/26 11:02:09;;;;;;;7.30;4.55;;;-0.70;99.90;;;;;;5034951;28;20289;-87
2023/10/26 11:04:54;;;;;;;10.50;4.80;;;-0.60;99.90;;;;;;5031605;28;20828;-87
2023/10/26 11:07:39;;;;;;;10.77;5.00;;;-0.80;99.90;;;;;;5031473;28;20185;-88
2023/10/26 11:10:08;;;;;;;8.27;4.75;;;-0.70;99.90;;;;;;5020014;28;20233;-89
2023/10/26 11:12:35;;;;;;;8.73;4.65;;;-0.60;99.90;;;;;;5032102;28;20189;-88
2023/10/26 11:15:05;;;;;;;10.60;5.13;;;-0.70;99.90;;;;;;5030145;28;20186;-86
2023/10/26 11:17:34;;;;;;;7.25;4.40;;;-0.70;99.90;;;;;;5062970;28;20209;-87
2023/10/26 11:20:03;;;;;;;9.18;4.43;;;-0.60;99.90;;;;;;5043958;28;20216;-88
2023/10/26 11:22:30;;;;;;;7.90;4.53;;;-0.50;99.90;;;;;;5024243;28;20205;-88
2023/10/26 11:24:59;;;;;;;9.30;4.80;;;-0.50;99.90;;;;;;5013872;28;20281;-86
2023/10/26 11:27:27;;;;;;;9.57;5.10;;;-0.70;99.90;;;;;;5043502;28;20564;-88
2023/10/26 11:30:05;;;;;;;9.77;4.70;;;-0.60;99.90;;;;;;5031498;28;20193;-89
2023/10/26 11:32:34;;;;;;;7.75;4.35;;;-0.60;99.90;;;;;;5038987;28;20192;-87
2023/10/26 11:35:06;;;;;;;7.95;4.70;;;-0.60;99.90;;;;;;5031493;28;20226;-89
2023/10/26 11:37:41;;;;;;;7.18;4.38;;;-0.60;99.90;;;;;;5022766;28;20573;-88
2023/10/26 11:40:11;;;;;;;8.40;4.43;;;-0.70;99.90;;;;;;5057763;28;20275;-88
2023/10/26 11:42:52;;;;;;;8.80;5.00;;;-0.80;99.90;;;;;;5045440;28;20197;-87
2023/10/26 11:45:22;;;;;;;9.30;4.65;;;-0.70;99.90;;;;;;5044239;28;20566;-86
2023/10/26 11:47:54;;;;;;;9.30;4.85;;;-0.60;99.90;;;;;;5062674;28;20193;-87
2023/10/26 11:50:31;;;;;;;8.40;4.78;;;-0.60;99.90;;;;;;5029309;28;20618;-89
2023/10/26 11:53:05;;;;;;;9.10;4.70;;;-0.70;99.90;;;;;;5028578;28;20277;-89
2023/10/26 11:55:33;;;;;;;9.07;5.50;;;-0.70;99.90;;;;;;5062230;28;20193;-87
2023/10/26 11:58:02;;;;;;;10.23;5.63;;;-0.70;99.90;;;;;;5014185;28;20195;-87
2023/10/26 12:00:31;;;;;;;7.75;4.30;;;-0.70;99.90;;;;;;5034495;28;20232;-88
2023/10/26 12:02:59;;;;;;;8.93;5.03;;;-0.80;99.90;;;;;;5022054;28;20212;-88
2023/10/26 12:05:27;;;;;;;12.48;4.82;;;-0.80;99.90;;;;;;5029733;28;20186;-87
2023/10/26 12:07:55;;;;;;;7.80;4.35;;;-0.70;99.90;;;;;;5031018;28;20190;-89
2023/10/26 12:10:24;;;;;;;10.98;5.13;;;-0.60;99.90;;;;;;5012956;28;20218;-89
2023/10/26 12:12:52;;;;;;;9.40;5.03;;;-0.60;99.90;;;;;;5044387;28;20255;-87
2023/10/26 12:15:21;;;;;;;239.25;79.35;;;-0.70;99.90;;;;;;5023760;28;20190;-86
2023/10/26 12:17:49;;;;;;;21.42;13.15;;;-0.70;99.90;;;;;;5022944;28;20202;-90
2023/10/26 12:20:17;;;;;;;13.52;8.98;;;-0.70;99.90;;;;;;5056185;28;20268;-88
2023/10/26 12:22:47;;;;;;;14.32;9.57;;;-0.70;99.90;;;;;;5008631;28;20190;-88
2023/10/26 12:25:15;;;;;;;13.38;7.82;;;-0.80;99.90;;;;;;5043910;28;20201;-86
2023/10/26 12:27:42;;;;;;;14.15;11.05;;;-0.70;99.90;;;;;;5038019;28;20625;-89
2023/10/26 12:30:31;;;;;;;10.38;6.72;;;-0.70;99.90;;;;;;5034651;28;20281;-88
2023/10/26 12:32:59;;;;;;;9.98;6.65;;;-0.80;99.90;;;;;;5040535;28;20216;-89
2023/10/26 12:35:27;;;;;;;10.70;5.95;;;-0.80;99.90;;;;;;5060332;28;20192;-89
2023/10/26 12:37:55;;;;;;;9.82;6.20;;;-0.80;99.90;;;;;;5024792;28;20190;-88
2023/10/26 12:40:22;;;;;;;10.23;5.57;;;-0.80;99.90;;;;;;5027359;28;20195;-90
2023/10/26 12:42:50;;;;;;;9.25;6.35;;;-0.70;99.90;;;;;;5008922;28;20285;-88
2023/10/26 12:45:18;;;;;;;7.75;4.85;;;-0.80;99.90;;;;;;5026706;28;20194;-87
2023/10/26 12:47:46;;;;;;;11.48;6.63;;;-0.90;99.90;;;;;;5030162;28;20186;-88
2023/10/26 12:50:13;;;;;;;12.93;5.97;;;-0.90;99.90;;;;;;5029767;28;20359;-88
2023/10/26 12:52:41;;;;;;;11.00;5.22;;;-0.80;99.90;;;;;;5029731;28;20186;-89
2023/10/26 12:55:09;;;;;;;12.13;5.85;;;-0.80;99.90;;;;;;5029455;28;20190;-87
2023/10/26 12:57:37;;;;;;;7.68;4.68;;;-0.80;99.90;;;;;;5062088;28;20216;-87